Time;durP1;ratioP1;P1;durP2;ratioP2;P2;SDS_P1;SDS_P2;PMS_P1;PMS_P2;Temp;Humidity;BMP_temperature;BMP_pressure;BME280_temperature;BME280_humidity;BME280_pressure;Samples;Min_cycle;Max_cycle;Signal;HPM_P1;HPM_P2
2021/01/05 00:00:49;;;;;;;44.85;19.23;;;;;;;0.05;100.00;95636.47;4967203;28;22466;-48
2021/01/05 00:03:16;;;;;;;50.60;19.10;;;;;;;0.17;100.00;95645.19;4968735;28;20046;-50
2021/01/05 00:05:43;;;;;;;49.00;18.40;;;;;;;0.17;100.00;95646.03;4969418;28;20105;-45
2021/01/05 00:08:10;;;;;;;50.65;19.35;;;;;;;0.13;100.00;95635.97;4970884;28;20046;-46
2021/01/05 00:10:37;;;;;;;52.97;20.52;;;;;;;0.17;100.00;95640.88;4969950;28;20113;-45
2021/01/05 00:13:04;;;;;;;52.08;20.00;;;;;;;0.18;100.00;95646.88;4965511;28;20051;-45
2021/01/05 00:15:31;;;;;;;52.33;20.75;;;;;;;0.17;100.00;95642.59;4969469;28;20051;-48
2021/01/05 00:17:58;;;;;;;49.72;19.13;;;;;;;0.00;100.00;95646.31;4965807;28;20049;-45
2021/01/05 00:20:29;;;;;;;51.97;20.73;;;;;;;0.06;100.00;95643.31;4971112;28;20047;-49
2021/01/05 00:23:12;;;;;;;50.15;18.42;;;;;;;0.09;100.00;95642.28;4968285;28;20078;-45
2021/01/05 00:25:38;;;;;;;52.20;21.77;;;;;;;0.05;100.00;95646.00;4970207;28;20061;-46
2021/01/05 00:28:06;;;;;;;54.28;19.48;;;;;;;0.08;100.00;95649.22;4964298;28;20042;-46
2021/01/05 00:30:32;;;;;;;47.88;19.05;;;;;;;-0.03;100.00;95646.53;4966780;28;20128;-50
2021/01/05 00:33:01;;;;;;;41.95;16.67;;;;;;;0.06;100.00;95647.66;4964925;28;20125;-47
2021/01/05 00:35:31;;;;;;;47.63;18.38;;;;;;;0.13;100.00;95648.91;4966996;28;20062;-45
2021/01/05 00:37:58;;;;;;;46.70;17.67;;;;;;;0.16;100.00;95644.38;4968730;28;20078;-51
2021/01/05 00:40:26;;;;;;;45.95;18.48;;;;;;;0.10;100.00;95649.94;4968630;28;20522;-52
2021/01/05 00:42:54;;;;;;;44.78;17.52;;;;;;;0.13;100.00;95651.50;4967365;28;20046;-48
2021/01/05 00:45:24;;;;;;;50.83;19.45;;;;;;;0.22;100.00;95649.16;4951420;28;20039;-45
2021/01/05 00:47:51;;;;;;;40.67;16.92;;;;;;;0.09;100.00;95658.66;4963830;28;20462;-47
2021/01/05 00:50:19;;;;;;;40.17;17.13;;;;;;;0.07;100.00;95657.09;4964401;28;20065;-48
2021/01/05 00:52:46;;;;;;;46.60;19.27;;;;;;;0.03;100.00;95666.81;4966252;28;20410;-51
2021/01/05 00:55:13;;;;;;;47.38;20.35;;;;;;;-0.02;100.00;95663.72;4968661;28;20134;-46
2021/01/05 00:57:45;;;;;;;46.70;18.38;;;;;;;-0.11;100.00;95667.72;4949351;28;20109;-47
2021/01/05 01:00:16;;;;;;;47.70;17.75;;;;;;;0.00;100.00;95669.66;4978669;28;20054;-47
2021/01/05 01:02:43;;;;;;;49.45;19.20;;;;;;;0.01;100.00;95663.53;4975068;28;20078;-51
2021/01/05 01:05:11;;;;;;;46.47;18.95;;;;;;;0.16;100.00;95661.69;4951338;28;20130;-45
2021/01/05 01:07:39;;;;;;;46.38;18.35;;;;;;;0.08;100.00;95669.97;4983638;28;20042;-48
2021/01/05 01:10:07;;;;;;;42.45;18.17;;;;;;;-0.04;100.00;95668.16;4965104;28;20042;-50
2021/01/05 01:12:34;;;;;;;40.33;17.30;;;;;;;-0.17;100.00;95662.09;4982623;28;20050;-49
2021/01/05 01:15:02;;;;;;;40.88;16.30;;;;;;;-0.15;100.00;95665.44;4981482;28;20065;-48
2021/01/05 01:17:31;;;;;;;42.15;18.02;;;;;;;-0.31;100.00;95668.16;4967966;28;20071;-49
2021/01/05 01:19:58;;;;;;;41.60;16.90;;;;;;;-0.14;100.00;95657.56;4982748;28;20117;-47
2021/01/05 01:22:26;;;;;;;44.05;17.40;;;;;;;-0.22;100.00;95666.78;4948404;28;20047;-45
2021/01/05 01:25:07;;;;;;;41.90;17.50;;;;;;;-0.27;100.00;95662.72;4991634;28;20078;-46
2021/01/05 01:27:38;;;;;;;43.40;17.13;;;;;;;-0.28;100.00;95662.81;4968175;28;20170;-46
2021/01/05 01:30:07;;;;;;;43.65;17.67;;;;;;;-0.26;100.00;95659.19;4949737;28;20055;-46
2021/01/05 01:32:44;;;;;;;42.25;17.30;;;;;;;-0.27;100.00;95667.91;4954415;28;20131;-47
2021/01/05 01:35:14;;;;;;;44.10;19.00;;;;;;;-0.27;100.00;95672.25;4938535;28;20460;-45
2021/01/05 01:37:42;;;;;;;48.40;18.58;;;;;;;-0.17;100.00;95664.69;4954383;28;20513;-46
2021/01/05 01:40:14;;;;;;;44.55;17.75;;;;;;;-0.13;100.00;95667.00;4950999;28;20031;-48
2021/01/05 01:42:41;;;;;;;47.40;18.07;;;;;;;-0.28;100.00;95671.41;4980691;28;20086;-48
2021/01/05 01:45:09;;;;;;;44.72;17.98;;;;;;;-0.27;100.00;95672.25;4965867;28;20101;-49
2021/01/05 01:47:38;;;;;;;40.70;16.23;;;;;;;-0.13;100.00;95663.59;4979159;28;20165;-49
2021/01/05 01:50:13;;;;;;;40.83;16.00;;;;;;;-0.08;100.00;95666.69;4957220;28;20043;-49
2021/01/05 01:53:06;;;;;;;41.80;16.20;;;;;;;-0.21;100.00;95660.66;4950315;28;20047;-49
2021/01/05 01:55:46;;;;;;;38.75;16.00;;;;;;;-0.36;100.00;95665.06;4948582;28;20058;-48
2021/01/05 01:59:01;;;;;;;41.20;16.63;;;;;;;-0.24;100.00;95664.28;4980160;28;20133;-47
2021/01/05 02:01:42;;;;;;;40.72;15.45;;;;;;;-0.23;100.00;95657.34;4929306;29;20051;-48
2021/01/05 02:04:24;;;;;;;43.42;19.15;;;;;;;-0.36;100.00;95663.28;4954370;28;20134;-44
2021/01/05 02:07:21;;;;;;;41.80;16.48;;;;;;;-0.23;100.00;95659.94;4952939;28;20137;-49
2021/01/05 02:09:56;;;;;;;38.05;15.82;;;;;;;-0.25;100.00;95660.00;4983447;28;20564;-50
2021/01/05 02:12:30;;;;;;;45.38;17.40;;;;;;;-0.17;100.00;95656.94;4948142;28;20054;-50
2021/01/05 02:15:07;;;;;;;41.70;17.13;;;;;;;-0.23;100.00;95655.59;4989687;28;20411;-50
2021/01/05 02:18:06;;;;;;;40.63;16.35;;;;;;;-0.15;100.00;95660.25;4959742;28;20050;-49
2021/01/05 02:20:38;;;;;;;42.70;16.25;;;;;;;-0.23;100.00;95660.75;4985760;28;20170;-49
2021/01/05 02:23:14;;;;;;;43.72;17.42;;;;;;;-0.21;100.00;95664.06;4988470;28;20042;-48
2021/01/05 02:25:55;;;;;;;39.28;16.10;;;;;;;-0.31;100.00;95658.66;4973024;28;20061;-48
2021/01/05 02:28:31;;;;;;;39.28;15.40;;;;;;;-0.23;100.00;95650.41;4961379;28;20100;-46
2021/01/05 02:31:02;;;;;;;41.55;15.75;;;;;;;-0.18;100.00;95656.09;4952637;28;20121;-49
2021/01/05 02:33:40;;;;;;;43.75;18.00;;;;;;;-0.35;100.00;95657.19;4953196;28;20429;-46
2021/01/05 02:36:40;;;;;;;44.95;17.88;;;;;;;-0.30;100.00;95656.91;4990338;28;20043;-49
2021/01/05 02:39:55;;;;;;;41.78;14.30;;;;;;;-0.33;100.00;95646.75;4966658;28;20118;-46
2021/01/05 02:43:21;;;;;;;38.80;16.38;;;;;;;-0.29;100.00;95651.63;4966361;28;20066;-46
2021/01/05 02:46:14;;;;;;;37.70;14.00;;;;;;;-0.34;100.00;95653.69;4970941;28;20841;-47
2021/01/05 02:49:09;;;;;;;34.58;13.68;;;;;;;-0.38;100.00;95646.19;4967934;28;20599;-48
2021/01/05 02:52:43;;;;;;;39.33;13.70;;;;;;;-0.28;100.00;95644.66;4914006;28;20050;-48
2021/01/05 02:56:07;;;;;;;35.58;14.20;;;;;;;-0.33;100.00;95637.19;4967925;28;20062;-47
2021/01/05 02:59:28;;;;;;;36.45;15.85;;;;;;;-0.19;100.00;95632.91;4965618;28;20053;-51
2021/01/05 03:02:31;;;;;;;;;;;;;;;-0.17;100.00;95625.84;4970912;28;20057;-47
2021/01/05 03:05:17;;;;;;;38.72;16.92;;;;;;;-0.27;100.00;95629.03;4941997;28;19922;-48
2021/01/05 03:08:04;;;;;;;34.83;14.75;;;;;;;-0.24;100.00;95628.03;4967267;28;20050;-48
2021/01/05 03:10:54;;;;;;;30.45;13.77;;;;;;;-0.27;100.00;95629.03;4971165;28;20047;-47
2021/01/05 03:13:49;;;;;;;33.22;13.20;;;;;;;-0.21;100.00;95624.38;4967213;28;20186;-46
2021/01/05 03:16:37;;;;;;;34.55;13.77;;;;;;;-0.21;100.00;95616.59;4968784;28;20220;-49
2021/01/05 03:19:31;;;;;;;33.65;14.05;;;;;;;-0.09;100.00;95613.22;4989888;28;20496;-47
2021/01/05 03:22:19;;;;;;;32.28;13.60;;;;;;;-0.23;100.00;95621.91;4969668;28;20057;-51
2021/01/05 03:25:06;;;;;;;39.10;14.77;;;;;;;-0.20;100.00;95626.06;4968852;28;20081;-47
2021/01/05 03:27:55;;;;;;;36.17;14.85;;;;;;;-0.40;100.00;95627.34;4954270;28;20399;-47
2021/01/05 03:30:44;;;;;;;35.42;14.35;;;;;;;-0.38;100.00;95628.91;4967142;28;20053;-47
2021/01/05 03:33:30;;;;;;;32.65;12.77;;;;;;;-0.49;100.00;95639.09;4969324;28;20441;-46
2021/01/05 03:36:15;;;;;;;28.35;11.25;;;;;;;-0.47;100.00;95644.19;4969626;28;20409;-47
2021/01/05 03:39:02;;;;;;;28.52;12.07;;;;;;;-0.41;100.00;95629.09;4967751;28;20050;-48
2021/01/05 03:41:47;;;;;;;29.58;11.55;;;;;;;-0.40;100.00;95635.13;4970143;28;20058;-49
2021/01/05 03:44:34;;;;;;;29.17;12.43;;;;;;;-0.36;100.00;95640.00;4962846;28;20042;-46
2021/01/05 03:47:19;;;;;;;32.40;12.32;;;;;;;-0.35;100.00;95635.63;4971521;28;20063;-48
2021/01/05 03:50:07;;;;;;;31.83;12.90;;;;;;;-0.23;100.00;95628.84;4966866;28;20578;-50
2021/01/05 03:52:52;;;;;;;30.70;12.77;;;;;;;-0.21;100.00;95630.38;4971116;28;20053;-44
2021/01/05 03:55:39;;;;;;;31.10;13.05;;;;;;;-0.16;100.00;95632.69;4965104;28;20061;-48
2021/01/05 03:58:24;;;;;;;32.38;13.82;;;;;;;-0.28;100.00;95626.53;4963165;28;20050;-46
2021/01/05 04:01:11;;;;;;;31.50;12.82;;;;;;;-0.20;100.00;95613.09;4965963;28;20174;-45
2021/01/05 04:03:39;;;;;;;38.53;13.85;;;;;;;-0.23;100.00;95619.31;4969544;28;20054;-46
2021/01/05 04:06:06;;;;;;;32.35;14.00;;;;;;;-0.13;100.00;95616.97;4966601;28;20054;-45
2021/01/05 04:08:33;;;;;;;38.58;14.75;;;;;;;-0.26;100.00;95622.94;4969328;28;20047;-47
2021/01/05 04:11:01;;;;;;;33.40;14.13;;;;;;;-0.20;100.00;95620.88;4968420;28;20047;-46
2021/01/05 04:13:28;;;;;;;40.45;14.73;;;;;;;-0.28;100.00;95622.19;4969276;28;20502;-49
2021/01/05 04:15:55;;;;;;;34.80;14.32;;;;;;;-0.38;100.00;95621.16;4966419;28;20093;-49
2021/01/05 04:18:23;;;;;;;35.65;13.88;;;;;;;-0.33;100.00;95632.03;4968748;28;20105;-49
2021/01/05 04:20:50;;;;;;;34.75;14.18;;;;;;;-0.40;100.00;95624.75;4966209;28;20042;-46
2021/01/05 04:23:17;;;;;;;40.03;14.27;;;;;;;-0.50;100.00;95625.34;4972926;28;20104;-48
2021/01/05 04:25:44;;;;;;;32.88;13.05;;;;;;;-0.40;100.00;95627.34;4968787;28;20051;-52
2021/01/05 04:28:12;;;;;;;34.17;14.35;;;;;;;-0.42;100.00;95631.78;4967606;28;20095;-48
2021/01/05 04:30:39;;;;;;;35.13;13.73;;;;;;;-0.38;100.00;95628.91;4970034;28;20132;-47
2021/01/05 04:33:08;;;;;;;34.22;12.95;;;;;;;-0.20;100.00;95623.47;4965710;28;20051;-48
2021/01/05 04:35:36;;;;;;;31.45;13.07;;;;;;;-0.06;100.00;95631.16;4968981;28;20066;-48
2021/01/05 04:38:03;;;;;;;30.17;12.98;;;;;;;-0.01;100.00;95632.50;4968569;28;20469;-49
2021/01/05 04:40:33;;;;;;;30.83;12.55;;;;;;;0.00;100.00;95635.97;4969758;28;20043;-49
2021/01/05 04:43:21;;;;;;;29.70;12.95;;;;;;;-0.13;100.00;95633.34;4967712;28;20510;-47
2021/01/05 04:45:54;;;;;;;32.72;11.75;;;;;;;-0.12;100.00;95641.94;4968541;28;20576;-48
2021/01/05 04:48:31;;;;;;;30.00;12.80;;;;;;;-0.26;100.00;95641.06;4966351;28;20047;-46
2021/01/05 04:51:00;;;;;;;30.98;13.30;;;;;;;-0.41;100.00;95647.22;4968065;28;20502;-49
2021/01/05 04:53:31;;;;;;;28.90;11.40;;;;;;;-0.26;100.00;95641.06;4969492;28;20042;-48
2021/01/05 04:55:59;;;;;;;31.75;13.88;;;;;;;-0.30;100.00;95641.38;4969061;28;20050;-48
2021/01/05 04:58:30;;;;;;;29.80;12.02;;;;;;;-0.40;100.00;95651.47;4967778;28;20133;-44
2021/01/05 05:00:58;;;;;;;28.98;11.52;;;;;;;-0.28;100.00;95652.44;4968680;28;20089;-50
2021/01/05 05:03:34;;;;;;;23.98;10.52;;;;;;;-0.19;100.00;95648.44;4965803;28;20098;-47
2021/01/05 05:06:13;;;;;;;29.55;11.40;;;;;;;-0.20;100.00;95657.16;4969612;28;20047;-48
2021/01/05 05:09:05;;;;;;;32.92;12.25;;;;;;;-0.25;100.00;95655.66;4966350;28;20046;-46
2021/01/05 05:11:41;;;;;;;33.83;13.43;;;;;;;-0.20;100.00;95654.56;4966123;28;20054;-49
2021/01/05 05:14:13;;;;;;;33.45;13.00;;;;;;;-0.52;100.00;95666.03;4968386;28;20053;-48
2021/01/05 05:16:57;;;;;;;31.50;13.70;;;;;;;-0.59;100.00;95661.31;4968626;28;20552;-49
2021/01/05 05:19:39;;;;;;;33.70;13.32;;;;;;;-0.36;100.00;95658.13;4960351;28;20514;-46
2021/01/05 05:22:11;;;;;;;33.17;14.15;;;;;;;-0.29;100.00;95666.31;4969030;28;20038;-45
2021/01/05 05:24:50;;;;;;;32.30;13.32;;;;;;;-0.40;100.00;95667.00;4967491;28;20102;-46
2021/01/05 05:27:23;;;;;;;35.65;13.70;;;;;;;-0.15;100.00;95668.03;4968248;28;20047;-49
2021/01/05 05:29:53;;;;;;;32.80;13.25;;;;;;;-0.04;100.00;95666.41;4965678;28;20077;-52
2021/01/05 05:32:27;;;;;;;34.15;15.35;;;;;;;-0.44;100.00;95673.31;4968771;28;20035;-49
2021/01/05 05:34:59;;;;;;;32.47;13.27;;;;;;;-0.27;100.00;95672.25;4964581;28;20035;-50
2021/01/05 05:37:48;;;;;;;32.55;12.82;;;;;;;-0.03;100.00;95670.66;4965027;28;20529;-52
2021/01/05 05:40:20;;;;;;;33.10;14.45;;;;;;;-0.47;100.00;95673.50;4969144;28;20046;-48
2021/01/05 05:43:27;;;;;;;36.28;13.68;;;;;;;-0.61;100.00;95682.16;4970740;28;20039;-46
2021/01/05 05:45:59;;;;;;;29.90;13.43;;;;;;;-0.48;100.00;95679.63;4969055;28;20058;-46
2021/01/05 05:48:33;;;;;;;32.25;13.95;;;;;;;-0.58;100.00;95687.13;4971969;28;20581;-48
2021/01/05 05:51:06;;;;;;;29.90;11.48;;;;;;;-0.50;100.00;95697.00;4968740;28;20050;-46
2021/01/05 05:53:36;;;;;;;31.17;12.32;;;;;;;-0.59;100.00;95690.63;4971892;28;20153;-51
2021/01/05 05:56:05;;;;;;;30.50;13.00;;;;;;;-0.35;100.00;95690.84;4972582;28;20050;-49
2021/01/05 05:58:35;;;;;;;31.27;11.40;;;;;;;-0.55;100.00;95694.72;4971580;28;20502;-47
2021/01/05 06:01:06;;;;;;;34.47;13.82;;;;;;;-0.50;100.00;95697.84;4968799;28;20457;-47
2021/01/05 06:03:33;;;;;;;;;;;;;;;-0.52;100.00;95704.03;4972105;28;20053;-45
2021/01/05 06:05:59;;;;;;;31.20;12.55;;;;;;;-0.49;100.00;95703.84;4968973;28;19992;-46
2021/01/05 06:08:27;;;;;;;31.02;12.80;;;;;;;-0.52;100.00;95704.03;4975991;28;20050;-50
2021/01/05 06:10:54;;;;;;;31.42;13.25;;;;;;;-0.26;100.00;95705.81;4974820;28;20047;-49
2021/01/05 06:13:22;;;;;;;33.42;13.38;;;;;;;-0.22;100.00;95708.22;4972302;28;20561;-48
2021/01/05 06:15:49;;;;;;;34.13;13.70;;;;;;;-0.32;100.00;95703.59;4969747;28;20047;-47
2021/01/05 06:18:20;;;;;;;31.55;13.70;;;;;;;-0.17;100.00;95700.97;4987973;28;20054;-47
2021/01/05 06:20:47;;;;;;;30.80;12.68;;;;;;;-0.20;100.00;95703.78;4969578;28;20074;-51
2021/01/05 06:23:18;;;;;;;32.10;13.15;;;;;;;-0.11;100.00;95709.19;4974254;28;20070;-45
2021/01/05 06:25:46;;;;;;;28.67;12.15;;;;;;;-0.05;99.64;95706.22;4968907;28;20476;-47
2021/01/05 06:28:14;;;;;;;32.63;13.07;;;;;;;0.02;98.78;95703.22;4972445;28;20137;-46
2021/01/05 06:30:40;;;;;;;32.97;13.02;;;;;;;-0.13;99.27;95699.88;4968716;28;20457;-49
2021/01/05 06:33:07;;;;;;;34.03;13.25;;;;;;;-0.06;99.32;95703.72;4970596;28;20108;-49
2021/01/05 06:35:35;;;;;;;33.17;13.63;;;;;;;-0.05;99.42;95705.38;4971406;28;20529;-46
2021/01/05 06:38:02;;;;;;;28.20;12.48;;;;;;;-0.32;100.00;95711.38;4972002;28;20480;-48
2021/01/05 06:40:30;;;;;;;31.52;13.65;;;;;;;-0.22;100.00;95709.03;4970410;28;20042;-45
2021/01/05 06:42:57;;;;;;;33.05;14.15;;;;;;;-0.25;99.71;95717.84;4969045;28;20067;-46
2021/01/05 06:45:26;;;;;;;31.92;13.38;;;;;;;-0.30;99.50;95706.94;4971395;28;20097;-48
2021/01/05 06:47:54;;;;;;;37.05;14.05;;;;;;;-0.25;99.88;95717.00;4966566;28;20537;-47
2021/01/05 06:50:23;;;;;;;33.83;14.93;;;;;;;-0.27;100.00;95722.31;4972960;28;20387;-48
2021/01/05 06:52:52;;;;;;;30.33;14.40;;;;;;;-0.18;100.00;95717.44;4968687;28;20054;-50
2021/01/05 06:55:19;;;;;;;33.80;13.48;;;;;;;-0.05;100.00;95719.16;4971781;28;20451;-48
2021/01/05 06:57:46;;;;;;;35.70;14.52;;;;;;;-0.15;99.03;95722.44;4965516;28;20137;-46
2021/01/05 07:00:16;;;;;;;34.67;15.85;;;;;;;-0.07;99.06;95725.38;4969862;28;20062;-50
2021/01/05 07:02:43;;;;;;;33.97;14.73;;;;;;;-0.13;98.90;95725.78;4969661;28;20043;-46
2021/01/05 07:05:11;;;;;;;35.97;14.63;;;;;;;-0.16;98.68;95728.56;4974585;28;20302;-47
2021/01/05 07:07:38;;;;;;;36.60;14.32;;;;;;;-0.29;99.99;95734.50;4968664;28;20357;-48
2021/01/05 07:10:08;;;;;;;35.28;14.77;;;;;;;-0.35;100.00;95724.53;4971802;28;20070;-45
2021/01/05 07:12:35;;;;;;;33.67;13.97;;;;;;;-0.20;99.80;95740.06;4967588;28;20039;-48
2021/01/05 07:15:03;;;;;;;38.75;15.20;;;;;;;-0.19;100.00;95737.34;4971846;28;20362;-51
2021/01/05 07:17:30;;;;;;;34.13;14.60;;;;;;;-0.16;99.88;95738.94;4967735;28;20073;-46
2021/01/05 07:19:57;;;;;;;36.97;14.80;;;;;;;-0.17;99.83;95748.47;4972329;28;20101;-49
2021/01/05 07:22:24;;;;;;;39.13;15.82;;;;;;;-0.28;99.28;95749.09;4970150;28;20121;-49
2021/01/05 07:24:52;;;;;;;61.78;25.55;;;;;;;-0.19;99.81;95746.88;4969360;28;20527;-46
2021/01/05 07:27:20;;;;;;;65.10;28.55;;;;;;;-0.05;98.15;95749.44;4969920;28;20093;-49
2021/01/05 07:29:47;;;;;;;39.17;17.73;;;;;;;-0.16;98.00;95755.31;4968092;28;20050;-50
2021/01/05 07:32:15;;;;;;;40.33;16.02;;;;;;;-0.10;98.66;95759.28;4972250;28;20066;-46
2021/01/05 07:34:42;;;;;;;38.50;15.82;;;;;;;-0.11;99.14;95755.81;4969738;28;20137;-47
2021/01/05 07:37:14;;;;;;;38.83;15.93;;;;;;;-0.14;99.30;95758.59;4970249;28;20034;-49
2021/01/05 07:39:41;;;;;;;37.75;15.77;;;;;;;-0.22;99.92;95765.22;4968720;28;20046;-53
2021/01/05 07:42:15;;;;;;;37.97;15.18;;;;;;;-0.15;99.28;95764.72;4971005;28;20043;-48
2021/01/05 07:44:44;;;;;;;43.75;16.95;;;;;;;-0.10;99.85;95761.88;4967357;28;20043;-47
2021/01/05 07:47:11;;;;;;;40.10;16.42;;;;;;;0.03;99.47;95765.31;4973509;28;20122;-49
2021/01/05 07:49:38;;;;;;;42.55;17.15;;;;;;;0.06;97.67;95767.72;4967014;28;20160;-49
2021/01/05 07:52:19;;;;;;;41.90;17.38;;;;;;;-0.07;98.65;95766.81;4970768;28;20141;-48
2021/01/05 07:54:46;;;;;;;43.40;16.77;;;;;;;-0.08;99.48;95768.59;4966077;28;20801;-47
2021/01/05 07:57:13;;;;;;;40.15;16.02;;;;;;;-0.09;99.69;95779.06;4969554;28;20056;-46
2021/01/05 07:59:40;;;;;;;43.00;16.98;;;;;;;-0.02;98.51;95772.56;4967552;28;20070;-45
2021/01/05 08:02:09;;;;;;;39.97;15.73;;;;;;;0.08;97.90;95778.84;4971432;28;20071;-50
2021/01/05 08:04:36;;;;;;;43.22;17.63;;;;;;;0.13;97.89;95783.72;4967345;28;20054;-48
2021/01/05 08:07:03;;;;;;;42.63;17.67;;;;;;;0.25;95.99;95785.53;4970556;28;20077;-46
2021/01/05 08:09:30;;;;;;;43.70;17.67;;;;;;;0.45;94.64;95786.84;4966596;28;20109;-49
2021/01/05 08:11:57;;;;;;;44.38;18.33;;;;;;;0.27;95.73;95790.63;4970567;28;20484;-47
2021/01/05 08:14:24;;;;;;;45.17;19.02;;;;;;;0.10;96.16;95794.28;4966504;28;20058;-48
2021/01/05 08:16:53;;;;;;;42.60;18.02;;;;;;;-0.03;95.28;95784.69;4965543;28;20093;-48
2021/01/05 08:19:21;;;;;;;44.63;18.25;;;;;;;0.01;95.79;95790.53;4968923;28;20039;-47
2021/01/05 08:21:48;;;;;;;41.28;16.35;;;;;;;-0.10;95.39;95795.56;4967375;28;20053;-46
2021/01/05 08:24:18;;;;;;;44.42;18.40;;;;;;;0.02;95.18;95797.34;4970674;28;20532;-46
2021/01/05 08:26:45;;;;;;;41.83;17.08;;;;;;;0.13;94.46;95802.69;4966355;28;20051;-50
2021/01/05 08:29:12;;;;;;;52.40;18.73;;;;;;;-0.01;95.12;95802.72;4971371;28;20097;-45
2021/01/05 08:31:43;;;;;;;44.70;18.20;;;;;;;0.06;94.92;95803.19;4965776;28;20129;-49
2021/01/05 08:34:11;;;;;;;45.17;18.48;;;;;;;0.21;94.30;95805.66;4968782;28;20053;-45
2021/01/05 08:36:39;;;;;;;50.28;18.27;;;;;;;0.08;94.05;95806.53;4968015;28;20565;-46
2021/01/05 08:39:06;;;;;;;40.45;18.88;;;;;;;0.03;94.89;95801.59;4968993;28;20046;-50
2021/01/05 08:41:33;;;;;;;43.30;18.50;;;;;;;-0.04;94.60;95797.72;4966300;28;20565;-47
2021/01/05 08:44:00;;;;;;;44.78;18.25;;;;;;;0.10;93.62;95808.06;4970990;28;20586;-46
2021/01/05 08:46:28;;;;;;;42.08;17.35;;;;;;;0.02;93.40;95807.72;4966084;28;20057;-47
2021/01/05 08:48:55;;;;;;;39.38;17.38;;;;;;;0.22;93.04;95809.06;4968890;28;20105;-51
2021/01/05 08:51:23;;;;;;;42.55;16.90;;;;;;;0.25;93.85;95813.22;4965773;28;20589;-46
2021/01/05 08:53:51;;;;;;;39.83;17.52;;;;;;;0.27;92.67;95812.19;4967903;28;20513;-47
2021/01/05 08:56:19;;;;;;;42.40;17.02;;;;;;;0.16;91.74;95814.63;4968615;28;20094;-50
2021/01/05 08:58:47;;;;;;;47.17;17.80;;;;;;;0.23;91.63;95821.09;4968113;28;20050;-51
2021/01/05 09:01:14;;;;;;;42.20;18.05;;;;;;;0.26;91.25;95826.09;4968115;28;20041;-48
2021/01/05 09:03:41;;;;;;;37.95;17.65;;;;;;;0.23;91.04;95826.28;4966803;28;20051;-50
2021/01/05 09:06:08;;;;;;;36.67;16.65;;;;;;;0.16;90.93;95825.00;4968903;28;20054;-47
2021/01/05 09:08:36;;;;;;;41.40;18.52;;;;;;;0.17;91.03;95827.50;4967631;28;20042;-46
2021/01/05 09:11:05;;;;;;;36.47;16.30;;;;;;;0.26;91.59;95822.66;4969902;28;20046;-48
2021/01/05 09:13:33;;;;;;;;;;;;;;;0.27;92.09;95824.31;4967265;28;20568;-46
2021/01/05 09:16:00;;;;;;;44.63;17.27;;;;;;;0.31;91.98;95821.44;4968412;28;20352;-46
2021/01/05 09:18:27;;;;;;;40.40;16.30;;;;;;;0.35;90.96;95819.50;4966474;28;20062;-46
2021/01/05 09:20:55;;;;;;;39.90;17.27;;;;;;;0.59;90.49;95825.69;4967856;28;20073;-47
2021/01/05 09:23:23;;;;;;;39.35;17.80;;;;;;;0.66;89.60;95818.34;4970076;28;20608;-50
2021/01/05 09:25:51;;;;;;;38.88;16.38;;;;;;;0.76;87.92;95814.22;4968748;28;20050;-51
2021/01/05 09:28:19;;;;;;;42.28;18.60;;;;;;;0.51;88.82;95820.16;4967682;28;20121;-47
2021/01/05 09:30:47;;;;;;;42.47;16.77;;;;;;;0.78;87.66;95819.28;4967509;28;20055;-49
2021/01/05 09:33:13;;;;;;;34.65;14.90;;;;;;;0.67;88.32;95810.44;4965941;28;20109;-46
2021/01/05 09:35:41;;;;;;;38.65;16.83;;;;;;;1.06;87.14;95810.50;4967502;28;20047;-49
2021/01/05 09:38:09;;;;;;;40.08;17.30;;;;;;;0.95;86.53;95813.81;4969469;28;20429;-46
2021/01/05 09:40:36;;;;;;;35.90;15.82;;;;;;;1.10;86.02;95812.81;4950272;28;20047;-50
2021/01/05 09:43:04;;;;;;;36.42;17.20;;;;;;;1.17;85.18;95803.69;4967601;28;20039;-48
2021/01/05 09:45:31;;;;;;;38.58;16.58;;;;;;;0.96;85.45;95805.09;4968122;28;20122;-46
2021/01/05 09:48:04;;;;;;;36.35;15.40;;;;;;;1.03;84.25;95805.50;4967041;28;20122;-47
2021/01/05 09:50:31;;;;;;;35.50;15.43;;;;;;;1.02;84.07;95815.06;4966537;28;20461;-49
2021/01/05 09:52:58;;;;;;;37.15;15.65;;;;;;;0.91;84.42;95805.41;4969671;28;20057;-46
2021/01/05 09:55:25;;;;;;;33.88;14.88;;;;;;;1.09;83.76;95800.75;4964849;28;20109;-48
2021/01/05 09:57:52;;;;;;;37.40;15.63;;;;;;;1.21;82.86;95799.09;4967616;28;20691;-50
2021/01/05 10:00:20;;;;;;;;;;;;;;;1.17;83.70;95797.63;4964947;28;20046;-49
2021/01/05 10:02:48;;;;;;;;;;;;;;;1.24;82.93;95793.72;4971360;28;19929;-50
2021/01/05 10:05:15;;;;;;;;;;;;;;;1.31;83.11;95794.94;4968286;28;19922;-49
2021/01/05 10:07:42;;;;;;;33.35;15.07;;;;;;;1.17;83.18;95795.88;4974422;28;19925;-48
2021/01/05 10:10:16;;;;;;;33.30;14.95;;;;;;;1.14;82.80;95785.72;4968433;28;20051;-48
2021/01/05 10:12:43;;;;;;;31.40;12.98;;;;;;;1.25;82.22;95786.75;4967928;28;20051;-50
2021/01/05 10:15:11;;;;;;;35.03;15.52;;;;;;;1.44;82.02;95787.13;4967034;28;20131;-48
2021/01/05 10:17:38;;;;;;;32.65;14.43;;;;;;;1.65;81.07;95782.22;4969873;28;20047;-48
2021/01/05 10:20:08;;;;;;;31.58;14.27;;;;;;;1.47;80.71;95783.50;4962470;28;20051;-47
2021/01/05 10:22:35;;;;;;;36.65;15.70;;;;;;;1.72;80.11;95777.41;4970178;28;20145;-50
2021/01/05 10:25:08;;;;;;;33.80;16.10;;;;;;;1.56;79.94;95773.31;4968758;28;20074;-47
2021/01/05 10:27:35;;;;;;;40.53;19.92;;;;;;;1.40;81.22;95772.69;4970752;28;20957;-45
2021/01/05 10:30:04;;;;;;;40.17;20.80;;;;;;;1.29;81.46;95775.22;4967490;28;20404;-50
2021/01/05 10:35:49;;;;;;;40.10;21.13;;;;;;;1.27;81.46;95771.88;4965472;28;20467;-47
2021/01/05 10:38:16;;;;;;;39.75;21.10;;;;;;;1.26;82.00;95762.44;4973652;28;20434;-50
2021/01/05 10:40:43;;;;;;;40.67;21.88;;;;;;;1.40;81.27;95770.91;4967222;28;20439;-50
2021/01/05 10:43:10;;;;;;;37.45;20.85;;;;;;;1.30;80.51;95766.47;4964168;28;20505;-51
2021/01/05 10:45:40;;;;;;;38.30;20.23;;;;;;;1.64;79.84;95757.19;4966067;28;20436;-53
2021/01/05 10:48:08;;;;;;;42.58;22.02;;;;;;;1.57;79.36;95766.34;4967824;28;20891;-50
2021/01/05 10:50:35;;;;;;;40.60;21.42;;;;;;;1.58;79.71;95755.00;4967724;28;20424;-49
2021/01/05 10:53:03;;;;;;;41.42;21.20;;;;;;;1.58;79.01;95765.38;4969296;28;20524;-48
2021/01/05 10:55:30;;;;;;;41.88;21.63;;;;;;;1.76;78.14;95755.50;4970239;28;20431;-48
2021/01/05 10:57:57;;;;;;;41.95;22.05;;;;;;;1.85;78.21;95747.03;4966847;28;20439;-48
2021/01/05 11:00:24;;;;;;;39.15;20.60;;;;;;;2.09;78.64;95742.66;4968460;28;20436;-51
2021/01/05 11:02:51;;;;;;;39.17;21.40;;;;;;;1.89;78.27;95746.72;4967022;28;20419;-47
2021/01/05 11:05:19;;;;;;;39.33;20.25;;;;;;;1.64;77.62;95745.00;4970064;28;20435;-47
2021/01/05 11:07:50;;;;;;;40.53;21.17;;;;;;;1.64;77.67;95745.00;4967603;28;20440;-53
2021/01/05 11:10:19;;;;;;;40.35;20.25;;;;;;;1.67;79.08;95737.00;4968430;28;20428;-48
2021/01/05 11:12:46;;;;;;;38.50;20.83;;;;;;;1.84;80.27;95740.19;4966333;28;20436;-50
2021/01/05 11:15:14;;;;;;;37.25;20.10;;;;;;;2.10;78.04;95735.72;4968804;28;20447;-49
2021/01/05 11:17:43;;;;;;;41.22;21.00;;;;;;;2.05;77.53;95730.00;4974529;28;20420;-47
2021/01/05 11:20:12;;;;;;;39.85;20.75;;;;;;;2.02;78.34;95731.06;4971596;28;20432;-47
2021/01/05 11:22:38;;;;;;;41.17;20.73;;;;;;;2.05;77.15;95724.81;4966424;28;20434;-50
2021/01/05 11:25:07;;;;;;;39.35;16.83;;;;;;;2.04;77.10;95723.16;4970836;28;20105;-52
2021/01/05 11:27:35;;;;;;;37.03;15.70;;;;;;;2.03;76.05;95724.94;4968990;28;20062;-48
2021/01/05 11:30:02;;;;;;;34.40;15.45;;;;;;;2.04;77.82;95726.59;4969335;28;20481;-46
2021/01/05 11:32:29;;;;;;;38.50;15.90;;;;;;;2.23;74.73;95735.66;4964029;28;20517;-51
2021/01/05 11:34:56;;;;;;;34.20;15.98;;;;;;;2.52;75.82;95736.13;4969509;28;20133;-48
2021/01/05 11:37:23;;;;;;;34.50;14.77;;;;;;;2.39;74.36;95736.19;4969805;28;20093;-45
2021/01/05 11:39:53;;;;;;;37.83;15.10;;;;;;;2.40;75.76;95739.63;4966260;28;20175;-51
2021/01/05 11:42:22;;;;;;;39.08;16.60;;;;;;;2.30;74.77;95742.88;4967993;28;20109;-45
2021/01/05 11:44:50;;;;;;;38.10;17.17;;;;;;;2.35;73.99;95739.97;4965379;28;20121;-51